createdAt,value
2017-12-22T10:26:24.374Z,11.93
2017-12-22T10:28:52.616Z,14.60
2017-12-22T10:31:22.205Z,12.13
2017-12-22T10:33:50.477Z,14.70
2017-12-22T10:36:19.481Z,12.77
2017-12-22T10:38:49.288Z,13.70
2017-12-22T10:41:20.239Z,11.63
2017-12-22T10:43:49.707Z,13.40
2017-12-22T10:46:19.181Z,12.07
2017-12-22T10:48:48.693Z,11.57
2017-12-22T10:51:17.208Z,11.30
2017-12-22T10:53:46.818Z,12.40
2017-12-22T10:56:15.377Z,11.43
2017-12-22T10:58:43.617Z,9.77
2017-12-22T11:01:11.865Z,11.63
2017-12-22T11:03:41.699Z,12.17
2017-12-22T11:06:11.279Z,12.13
2017-12-22T11:08:39.797Z,12.93
2017-12-22T11:11:09.203Z,11.30
2017-12-22T11:13:38.573Z,13.33
2017-12-22T11:16:06.855Z,13.93
2017-12-22T11:18:35.137Z,12.30
2017-12-22T11:21:03.377Z,12.37
2017-12-22T11:23:33.010Z,11.17
2017-12-22T11:26:01.571Z,10.87
2017-12-22T11:28:31.395Z,10.33
2017-12-22T11:31:00.830Z,12.07
2017-12-22T11:33:29.114Z,10.90
2017-12-22T11:35:57.357Z,11.30
2017-12-22T11:38:25.611Z,12.03
2017-12-22T11:40:55.401Z,12.00
2017-12-22T11:43:23.667Z,11.27
2017-12-22T11:45:51.923Z,11.47
2017-12-22T11:48:22.901Z,12.87
2017-12-22T11:50:51.902Z,15.50
2017-12-22T11:53:21.505Z,15.77
2017-12-22T11:55:50.448Z,17.33
2017-12-22T11:58:20.274Z,18.00
2017-12-22T12:00:48.837Z,15.80
2017-12-22T12:03:17.108Z,16.67
2017-12-22T12:05:46.531Z,17.63
2017-12-22T12:08:16.110Z,19.20
2017-12-22T12:10:44.696Z,16.47
2017-12-22T12:13:13.699Z,17.77
2017-12-22T12:15:43.078Z,16.50
2017-12-22T12:18:15.122Z,18.70
2017-12-22T12:20:44.709Z,15.47
2017-12-22T12:23:14.172Z,16.80
2017-12-22T12:25:43.456Z,17.53
2017-12-22T12:28:11.697Z,18.07
2017-12-22T12:30:39.933Z,17.57
2017-12-22T12:33:08.968Z,19.70
2017-12-22T12:35:38.350Z,18.13
2017-12-22T12:38:08.098Z,20.17
2017-12-22T12:40:37.781Z,19.23
2017-12-22T12:43:07.261Z,19.30
2017-12-22T12:45:35.747Z,21.30
2017-12-22T12:48:05.165Z,19.80
2017-12-22T12:50:33.427Z,21.43
2017-12-22T12:53:01.681Z,23.43
2017-12-22T12:55:29.958Z,23.10
2017-12-22T12:57:58.962Z,25.40
2017-12-22T13:00:27.213Z,28.00
2017-12-22T13:02:56.989Z,28.93
2017-12-22T13:05:26.584Z,28.80
2017-12-22T13:07:55.473Z,29.80
2017-12-22T13:10:23.753Z,26.43
2017-12-22T13:12:51.993Z,27.63
2017-12-22T13:15:20.235Z,25.63
2017-12-22T13:20:26.661Z,28.67
2017-12-22T13:22:54.772Z,29.77
2017-12-22T13:25:23.413Z,27.37
2017-12-22T13:27:53.033Z,25.10
2017-12-22T13:30:21.149Z,26.43
2017-12-22T13:32:49.393Z,26.27
2017-12-22T13:35:18.455Z,27.40
2017-12-22T13:37:46.690Z,20.17
2017-12-22T13:40:14.930Z,19.40
2017-12-22T13:42:43.205Z,18.50
2017-12-22T13:45:13.058Z,19.77
2017-12-22T13:47:44.144Z,17.77
2017-12-22T13:50:13.395Z,20.00
2017-12-22T13:52:41.660Z,16.97
2017-12-22T13:55:11.449Z,17.83
2017-12-22T13:57:39.684Z,18.00
2017-12-22T14:00:08.316Z,19.27
2017-12-22T14:02:36.616Z,16.60
2017-12-22T14:05:05.647Z,17.07
2017-12-22T14:07:35.225Z,15.93
2017-12-22T14:10:03.383Z,17.10
2017-12-22T14:12:32.069Z,16.23
2017-12-22T14:15:01.101Z,15.70
2017-12-22T14:17:29.397Z,19.20
2017-12-22T14:19:58.409Z,18.63
2017-12-22T14:22:28.010Z,20.30
2017-12-22T14:24:56.984Z,21.60
2017-12-22T14:27:25.222Z,23.97
2017-12-22T14:29:53.471Z,26.40
2017-12-22T14:32:23.091Z,24.43
2017-12-22T14:34:51.209Z,29.17
2017-12-22T14:37:20.858Z,29.20
2017-12-22T14:39:49.813Z,27.07
2017-12-22T14:42:18.047Z,27.90
2017-12-22T14:44:47.640Z,30.03
2017-12-22T14:47:16.942Z,30.07
2017-12-22T14:49:46.603Z,29.40
2017-12-22T14:52:14.719Z,30.53
2017-12-22T14:54:43.396Z,29.30
2017-12-22T14:57:12.998Z,28.63
2017-12-22T14:59:41.520Z,29.07
2017-12-22T15:02:10.616Z,27.00
2017-12-22T15:04:40.357Z,28.60
2017-12-22T15:07:09.977Z,29.97
2017-12-22T15:09:38.885Z,27.03
2017-12-22T15:12:07.532Z,26.23
2017-12-22T15:14:35.839Z,28.17
2017-12-22T15:17:04.094Z,25.30
2017-12-22T15:19:32.349Z,25.83
2017-12-22T15:22:01.405Z,26.03
2017-12-22T15:24:29.655Z,23.03
2017-12-22T15:26:58.304Z,25.00
2017-12-22T15:29:26.584Z,23.43
2017-12-22T15:31:54.834Z,23.60
2017-12-22T15:34:24.572Z,25.40
2017-12-22T15:36:54.026Z,23.27
2017-12-22T15:39:23.618Z,21.00
2017-12-22T15:41:52.136Z,21.87
2017-12-22T15:44:20.436Z,22.50
2017-12-22T15:46:48.687Z,26.33
2017-12-22T15:49:16.928Z,25.67
2017-12-22T15:51:45.300Z,25.00
2017-12-22T15:54:13.559Z,28.67
2017-12-22T15:56:42.556Z,25.10
2017-12-22T15:59:11.237Z,26.53
2017-12-22T16:01:39.475Z,28.13
2017-12-22T16:04:07.714Z,29.20
2017-12-22T16:06:35.999Z,30.27
2017-12-22T16:09:05.775Z,29.10
2017-12-22T16:11:34.047Z,28.70
2017-12-22T16:14:02.320Z,24.60
2017-12-22T16:16:31.346Z,25.17
2017-12-22T16:19:00.000Z,26.27
2017-12-22T16:21:29.051Z,25.10
2017-12-22T16:23:58.632Z,25.10
2017-12-22T16:26:28.253Z,26.43
2017-12-22T16:28:57.890Z,24.80
2017-12-22T16:31:26.402Z,23.50
2017-12-22T16:33:54.694Z,24.00
2017-12-22T16:36:23.348Z,21.50
2017-12-22T16:38:51.666Z,23.10
2017-12-22T16:41:19.888Z,21.77
2017-12-22T16:43:48.981Z,23.27
2017-12-22T16:46:17.218Z,27.03
2017-12-22T16:48:45.469Z,23.67
2017-12-22T16:51:13.745Z,23.70
2017-12-22T16:53:42.004Z,26.30
2017-12-22T16:56:10.295Z,26.80
2017-12-22T16:58:38.564Z,24.53
2017-12-22T17:01:06.832Z,23.83
2017-12-22T17:03:35.832Z,23.07
2017-12-22T17:06:04.148Z,23.60
2017-12-22T17:08:32.405Z,22.63
2017-12-22T17:11:00.744Z,24.50
2017-12-22T17:13:28.996Z,23.40
2017-12-22T17:18:59.188Z,25.93
2017-12-22T17:21:27.432Z,26.50
2017-12-22T17:23:55.661Z,24.57
2017-12-22T17:26:25.111Z,25.47
2017-12-22T17:28:53.775Z,23.60
2017-12-22T17:31:22.074Z,24.77
2017-12-22T17:33:50.392Z,22.97
2017-12-22T17:36:20.184Z,20.83
2017-12-22T17:38:48.452Z,19.17
2017-12-22T17:41:17.525Z,19.53
2017-12-22T17:43:45.773Z,16.27
2017-12-22T17:46:15.362Z,19.37
2017-12-22T17:48:43.501Z,19.93
2017-12-22T17:51:12.151Z,17.37
2017-12-22T17:53:40.452Z,19.07
2017-12-22T17:56:08.713Z,18.37
2017-12-22T17:58:38.322Z,17.63
2017-12-22T18:01:06.474Z,18.87
2017-12-22T18:03:34.763Z,19.37
2017-12-22T18:06:03.006Z,22.47
2017-12-22T18:08:31.047Z,18.87
2017-12-22T18:10:59.525Z,17.63
2017-12-22T18:13:27.567Z,19.57
2017-12-22T18:15:56.339Z,20.40
2017-12-22T18:18:25.192Z,21.57
2017-12-22T18:20:54.009Z,22.13
2017-12-22T18:23:22.449Z,21.60
2017-12-22T18:25:51.589Z,23.30
2017-12-22T18:28:19.876Z,24.90
2017-12-22T18:30:48.150Z,26.70
2017-12-22T18:33:17.976Z,33.60
2017-12-22T18:35:46.215Z,30.67
2017-12-22T18:38:14.501Z,32.40
2017-12-22T18:40:42.820Z,28.60
2017-12-22T18:43:11.478Z,30.67
2017-12-22T18:45:40.538Z,35.33
2017-12-22T18:48:08.911Z,33.33
2017-12-22T18:50:37.906Z,34.77
2017-12-22T18:53:07.358Z,37.17
2017-12-22T18:55:37.778Z,30.77
2017-12-22T18:58:07.299Z,36.50
2017-12-22T19:00:37.170Z,38.50
2017-12-22T19:03:06.564Z,30.80
2017-12-22T19:05:35.242Z,30.07
2017-12-22T19:08:03.552Z,43.47
2017-12-22T19:10:33.183Z,41.43
2017-12-22T19:13:01.769Z,45.10
2017-12-22T19:15:30.398Z,42.50
2017-12-22T19:17:58.730Z,49.27
2017-12-22T19:20:28.144Z,47.17
2017-12-22T19:22:56.419Z,46.27
2017-12-22T19:25:25.172Z,43.43
2017-12-22T19:27:54.595Z,41.07
2017-12-22T19:30:22.885Z,44.70
2017-12-22T19:32:51.214Z,51.40
2017-12-22T19:35:19.505Z,41.57
2017-12-22T19:37:47.784Z,45.33
2017-12-22T19:40:17.614Z,38.60
2017-12-22T19:42:47.037Z,37.30
2017-12-22T19:45:16.674Z,37.03
2017-12-22T19:47:45.257Z,33.87
2017-12-22T19:50:14.670Z,31.20
2017-12-22T19:52:43.345Z,35.77
2017-12-22T19:55:11.660Z,36.30
2017-12-22T19:57:39.956Z,30.70
2017-12-22T20:00:08.232Z,36.10
2017-12-22T20:02:36.561Z,37.00
2017-12-22T20:05:04.866Z,34.20
2017-12-22T20:07:34.263Z,31.30
2017-12-22T20:10:02.601Z,32.93
2017-12-22T20:12:31.271Z,33.53
2017-12-22T20:14:59.565Z,36.87
2017-12-22T20:17:29.047Z,34.37
2017-12-22T20:19:57.332Z,37.00
2017-12-22T20:22:27.003Z,36.63
2017-12-22T20:24:56.615Z,30.67
2017-12-22T20:27:25.103Z,31.57
2017-12-22T20:29:54.719Z,31.43
2017-12-22T20:32:23.319Z,24.53
2017-12-22T20:34:52.951Z,37.87
2017-12-22T20:37:21.511Z,30.73
2017-12-22T20:39:51.168Z,32.27
2017-12-22T20:42:19.720Z,38.87
2017-12-22T20:44:48.018Z,40.77
2017-12-22T20:47:16.353Z,37.40
2017-12-22T20:49:46.009Z,34.17
2017-12-22T20:52:14.163Z,37.87
2017-12-22T20:54:42.494Z,40.30
2017-12-22T20:57:11.168Z,36.33
2017-12-22T20:59:40.981Z,35.70
2017-12-22T21:02:10.644Z,30.10
2017-12-22T21:04:39.553Z,33.87
2017-12-22T21:07:07.868Z,34.90
2017-12-22T21:09:38.744Z,30.00
2017-12-22T21:12:07.021Z,32.00
2017-12-22T21:14:35.366Z,33.07
2017-12-22T21:17:03.631Z,31.30
2017-12-22T21:19:31.909Z,29.83
2017-12-22T21:22:01.361Z,36.77
2017-12-22T21:24:29.691Z,33.30
2017-12-22T21:26:57.982Z,37.43
2017-12-22T21:29:27.279Z,34.23
2017-12-22T21:31:56.393Z,34.77
2017-12-22T21:34:24.690Z,31.77
2017-12-22T21:36:54.476Z,38.67
2017-12-22T21:39:22.805Z,40.43
2017-12-22T21:41:51.084Z,35.37
2017-12-22T21:44:19.361Z,39.63
2017-12-22T21:46:47.677Z,35.97
2017-12-22T21:49:16.682Z,32.77
2017-12-22T21:51:44.995Z,35.97
2017-12-22T21:54:14.090Z,35.70
2017-12-22T21:56:43.132Z,39.97
2017-12-22T21:59:11.414Z,42.30
2017-12-22T22:01:43.016Z,39.40
2017-12-22T22:04:12.525Z,44.10
2017-12-22T22:06:41.440Z,34.93
2017-12-22T22:09:09.751Z,37.20
2017-12-22T22:11:38.031Z,37.60
2017-12-22T22:14:07.081Z,36.90
2017-12-22T22:16:36.540Z,35.63
2017-12-22T22:19:04.827Z,32.00
2017-12-22T22:21:33.112Z,30.87
2017-12-22T22:24:01.442Z,34.30
2017-12-22T22:26:31.250Z,28.40
2017-12-22T22:28:59.549Z,28.57
2017-12-22T22:31:28.645Z,30.00
2017-12-22T22:33:57.699Z,32.83
2017-12-22T22:36:26.760Z,30.97
2017-12-22T22:38:55.060Z,31.17
2017-12-22T22:41:23.290Z,29.00
2017-12-22T22:43:51.588Z,28.00
2017-12-22T22:46:21.420Z,28.97
2017-12-22T22:48:50.404Z,26.97
2017-12-22T22:51:19.479Z,26.67
2017-12-22T22:53:49.176Z,26.17
2017-12-22T22:56:17.706Z,26.13
2017-12-22T22:58:46.758Z,26.57
2017-12-22T23:01:16.212Z,25.60
2017-12-22T23:03:44.506Z,26.40
2017-12-22T23:06:12.727Z,25.87
2017-12-22T23:08:41.055Z,27.20
2017-12-22T23:11:09.332Z,27.10
2017-12-22T23:13:38.739Z,31.50
2017-12-22T23:16:07.816Z,29.47
2017-12-22T23:18:36.847Z,29.60
2017-12-22T23:21:05.128Z,31.37
2017-12-22T23:23:33.401Z,33.83
2017-12-22T23:26:01.696Z,27.90
2017-12-22T23:28:29.916Z,30.53
2017-12-22T23:30:58.252Z,31.87
2017-12-22T23:33:27.295Z,31.77
2017-12-22T23:35:56.457Z,36.47
2017-12-22T23:38:24.717Z,37.00
2017-12-22T23:40:54.089Z,36.87
2017-12-22T23:43:23.742Z,33.70
2017-12-22T23:45:53.027Z,39.63
2017-12-22T23:48:22.616Z,39.10
2017-12-22T23:50:52.280Z,39.57
2017-12-22T23:53:21.561Z,41.10
2017-12-22T23:55:51.178Z,39.77
2017-12-22T23:58:19.724Z,41.73
